createdAt,value
2017-11-14T00:02:07.753Z,20.08
2017-11-14T00:04:35.293Z,17.58
2017-11-14T00:07:03.264Z,19.65
2017-11-14T00:09:30.823Z,18.50
2017-11-14T00:11:58.378Z,18.15
2017-11-14T00:14:25.954Z,19.40
2017-11-14T00:16:53.467Z,17.58
2017-11-14T00:19:20.987Z,16.73
2017-11-14T00:21:48.559Z,19.25
2017-11-14T00:24:16.175Z,17.27
2017-11-14T00:26:43.732Z,18.50
2017-11-14T00:29:11.475Z,17.98
2017-11-14T00:31:38.997Z,17.20
2017-11-14T00:34:06.519Z,19.75
2017-11-14T00:36:34.108Z,18.25
2017-11-14T00:39:01.631Z,18.80
2017-11-14T00:41:29.192Z,18.23
2017-11-14T00:43:56.953Z,18.15
2017-11-14T00:46:24.471Z,17.30
2017-11-14T00:48:51.987Z,17.77
2017-11-14T00:51:19.735Z,17.92
2017-11-14T00:53:47.294Z,19.00
2017-11-14T00:56:14.852Z,17.58
2017-11-14T00:58:41.921Z,18.40
2017-11-14T01:01:09.457Z,16.75
2017-11-14T01:03:37.032Z,16.87
2017-11-14T01:06:04.611Z,17.87
2017-11-14T01:08:32.130Z,17.73
2017-11-14T01:10:59.649Z,14.70
2017-11-14T01:13:27.355Z,18.65
2017-11-14T01:15:54.871Z,16.52
2017-11-14T01:18:22.409Z,16.77
2017-11-14T01:20:49.994Z,20.17
2017-11-14T01:23:17.515Z,19.70
2017-11-14T01:25:45.027Z,20.92
2017-11-14T01:28:12.709Z,22.58
2017-11-14T01:30:40.269Z,23.60
2017-11-14T01:33:07.829Z,18.67
2017-11-14T01:35:35.572Z,21.98
2017-11-14T01:38:03.092Z,21.25
2017-11-14T01:40:30.610Z,18.42
2017-11-14T01:42:58.183Z,19.23
2017-11-14T01:45:25.728Z,16.10
2017-11-14T01:47:53.285Z,19.50
2017-11-14T01:50:20.844Z,17.83
2017-11-14T01:55:31.615Z,16.90
2017-11-14T01:57:59.139Z,16.70
2017-11-14T02:00:38.729Z,15.57
2017-11-14T02:03:06.246Z,16.37
2017-11-14T02:05:33.768Z,15.07
2017-11-14T02:08:01.713Z,12.90
2017-11-14T02:10:29.224Z,14.43
2017-11-14T02:12:56.748Z,13.77
2017-11-14T02:15:24.493Z,15.10
2017-11-14T02:17:52.054Z,14.48
2017-11-14T02:20:19.656Z,14.27
2017-11-14T02:22:47.214Z,18.42
2017-11-14T02:25:14.731Z,19.12
2017-11-14T02:27:41.554Z,16.77
2017-11-14T02:30:09.097Z,15.35
2017-11-14T02:32:36.611Z,16.35
2017-11-14T02:35:04.131Z,16.90
2017-11-14T02:37:31.811Z,16.60
2017-11-14T02:39:59.370Z,16.40
2017-11-14T02:42:26.929Z,39.30
2017-11-14T02:44:54.540Z,36.90
2017-11-14T02:47:22.078Z,27.50
2017-11-14T02:49:49.595Z,17.67
2017-11-14T02:52:17.160Z,19.95
2017-11-14T02:54:44.680Z,17.85
2017-11-14T02:57:12.196Z,19.73
2017-11-14T02:59:39.841Z,18.75
2017-11-14T03:02:07.357Z,17.30
2017-11-14T03:04:34.905Z,15.68
2017-11-14T03:07:02.619Z,16.70
2017-11-14T03:09:30.135Z,16.23
2017-11-14T03:11:57.652Z,16.85
2017-11-14T03:14:25.216Z,16.80
2017-11-14T03:16:52.958Z,16.60
2017-11-14T03:19:20.520Z,17.42
2017-11-14T03:21:48.261Z,18.98
2017-11-14T03:24:15.810Z,21.90
2017-11-14T03:26:43.342Z,18.65
2017-11-14T03:29:11.067Z,18.67
2017-11-14T03:31:38.630Z,19.95
2017-11-14T03:34:06.186Z,19.37
2017-11-14T03:36:33.942Z,15.80
2017-11-14T03:39:01.502Z,18.20
2017-11-14T03:41:29.470Z,18.67
2017-11-14T03:43:57.281Z,18.20
2017-11-14T03:46:24.820Z,21.70
2017-11-14T03:48:52.353Z,17.52
2017-11-14T03:51:20.117Z,18.67
2017-11-14T03:53:47.635Z,18.40
2017-11-14T03:56:15.155Z,19.75
2017-11-14T03:58:42.896Z,19.77
2017-11-14T04:01:10.456Z,17.40
2017-11-14T04:03:37.975Z,18.37
2017-11-14T04:06:05.911Z,17.25
2017-11-14T04:08:33.441Z,17.17
2017-11-14T04:11:00.999Z,17.50
2017-11-14T04:13:28.756Z,20.15
2017-11-14T04:15:56.276Z,20.58
2017-11-14T04:18:23.796Z,19.35
2017-11-14T04:20:51.488Z,22.08
2017-11-14T04:23:19.009Z,21.12
2017-11-14T04:25:46.565Z,18.92
2017-11-14T04:28:14.300Z,21.42
2017-11-14T04:30:41.831Z,18.67
2017-11-14T04:33:09.353Z,19.33
2017-11-14T04:35:37.101Z,18.55
2017-11-14T04:38:04.606Z,18.20
2017-11-14T04:40:32.151Z,19.90
2017-11-14T04:42:59.985Z,21.48
2017-11-14T04:45:27.543Z,20.12
2017-11-14T04:47:55.103Z,20.52
2017-11-14T04:50:22.840Z,21.02
2017-11-14T04:52:50.360Z,18.83
2017-11-14T04:55:18.393Z,19.95
2017-11-14T04:57:46.260Z,21.08
2017-11-14T05:00:13.775Z,21.00
2017-11-14T05:02:41.291Z,19.62
2017-11-14T05:05:08.844Z,17.85
2017-11-14T05:07:36.362Z,19.62
2017-11-14T05:10:03.873Z,19.65
2017-11-14T05:12:31.463Z,17.92
2017-11-14T05:14:58.983Z,19.00
2017-11-14T05:17:26.501Z,19.42
2017-11-14T05:19:54.403Z,18.55
2017-11-14T05:22:21.960Z,16.70
2017-11-14T05:24:49.542Z,19.55
2017-11-14T05:27:17.276Z,17.17
2017-11-14T05:29:44.789Z,19.55
2017-11-14T05:32:12.320Z,18.87
2017-11-14T05:34:40.056Z,18.42
2017-11-14T05:37:07.574Z,21.20
2017-11-14T05:39:35.090Z,20.25
2017-11-14T05:42:02.837Z,20.55
2017-11-14T05:44:30.351Z,20.85
2017-11-14T05:46:57.866Z,19.85
2017-11-14T05:49:25.717Z,24.52
2017-11-14T05:51:53.279Z,21.85
2017-11-14T05:54:20.792Z,21.25
2017-11-14T05:56:48.599Z,20.77
2017-11-14T05:59:16.158Z,21.83
2017-11-14T06:01:43.717Z,22.20
2017-11-14T06:04:11.294Z,21.08
2017-11-14T06:06:38.852Z,23.05
2017-11-14T06:09:06.370Z,23.48
2017-11-14T06:11:34.272Z,20.48
2017-11-14T06:14:01.789Z,24.92
2017-11-14T06:16:29.312Z,20.73
2017-11-14T06:18:56.872Z,20.62
2017-11-14T06:21:24.387Z,21.73
2017-11-14T06:23:51.895Z,18.95
2017-11-14T06:26:19.513Z,18.60
2017-11-14T06:28:47.028Z,22.05
2017-11-14T06:31:14.836Z,21.37
2017-11-14T06:33:42.395Z,21.90
2017-11-14T06:36:09.916Z,21.77
2017-11-14T06:38:37.444Z,23.50
2017-11-14T06:41:05.255Z,20.45
2017-11-14T06:43:32.836Z,20.12
2017-11-14T06:46:00.355Z,21.77
2017-11-14T06:48:27.926Z,20.98
2017-11-14T06:50:55.435Z,20.50
2017-11-14T06:53:22.951Z,20.23
2017-11-14T06:55:50.522Z,20.15
2017-11-14T06:58:18.047Z,21.08
2017-11-14T07:00:45.574Z,30.65
2017-11-14T07:03:13.308Z,30.42
2017-11-14T07:05:40.819Z,26.02
2017-11-14T07:08:08.335Z,27.40
2017-11-14T07:10:35.883Z,24.45
2017-11-14T07:13:04.159Z,20.75
2017-11-14T07:15:31.720Z,21.23
2017-11-14T07:17:59.456Z,20.08
2017-11-14T07:20:26.976Z,21.00
2017-11-14T07:22:54.488Z,20.75
2017-11-14T07:25:23.184Z,19.50
2017-11-14T07:27:50.746Z,18.10
2017-11-14T07:30:18.302Z,16.92
2017-11-14T07:32:45.875Z,18.95
2017-11-14T07:35:13.421Z,16.08
2017-11-14T07:37:40.943Z,17.37
2017-11-14T07:40:08.844Z,18.00
2017-11-14T07:42:36.356Z,15.77
2017-11-14T07:45:03.872Z,16.65
2017-11-14T07:47:31.503Z,18.17
2017-11-14T07:49:59.023Z,15.65
2017-11-14T07:52:26.548Z,16.10
2017-11-14T07:54:54.104Z,20.17
2017-11-14T07:57:21.657Z,16.90
2017-11-14T07:59:49.258Z,16.73
2017-11-14T08:02:16.809Z,17.75
2017-11-14T08:04:44.332Z,19.52
2017-11-14T08:07:11.892Z,17.80
2017-11-14T08:09:40.372Z,17.73
2017-11-14T08:12:07.931Z,15.63
2017-11-14T08:14:35.497Z,17.80
2017-11-14T08:17:03.967Z,16.27
2017-11-14T08:19:31.576Z,14.87
2017-11-14T08:21:59.096Z,15.45
2017-11-14T08:24:26.852Z,14.98
2017-11-14T08:26:54.419Z,15.65
2017-11-14T08:29:21.948Z,17.20
2017-11-14T08:31:49.530Z,19.35
2017-11-14T08:34:17.296Z,17.98
2017-11-14T08:36:44.853Z,16.45
2017-11-14T08:39:13.138Z,18.83
2017-11-14T08:41:40.689Z,18.73
2017-11-14T08:44:10.911Z,16.52
2017-11-14T08:46:38.472Z,15.02
2017-11-14T08:49:06.027Z,16.10
2017-11-14T08:51:33.535Z,16.67
2017-11-14T08:54:01.540Z,15.90
2017-11-14T08:56:29.051Z,14.23
2017-11-14T08:58:56.572Z,16.95
2017-11-14T09:01:24.336Z,16.25
2017-11-14T09:03:51.896Z,15.82
2017-11-14T09:06:19.471Z,15.23
2017-11-14T09:08:47.064Z,17.58
2017-11-14T09:11:14.600Z,14.50
2017-11-14T09:13:42.868Z,15.27
2017-11-14T09:16:10.536Z,16.02
2017-11-14T09:18:38.051Z,13.30
2017-11-14T09:21:05.664Z,14.90
2017-11-14T09:23:33.336Z,13.90
2017-11-14T09:26:00.848Z,13.45
2017-11-14T09:28:28.406Z,12.07
2017-11-14T09:30:56.153Z,13.62
2017-11-14T09:33:23.667Z,13.10
2017-11-14T09:35:51.192Z,16.65
2017-11-14T09:38:18.819Z,15.00
2017-11-14T09:40:46.347Z,16.80
2017-11-14T09:43:13.864Z,15.55
2017-11-14T09:45:41.713Z,14.65
2017-11-14T09:48:09.287Z,14.65
2017-11-14T09:50:36.846Z,12.80
2017-11-14T09:53:04.580Z,14.85
2017-11-14T09:55:32.104Z,15.60
2017-11-14T09:57:59.631Z,13.60
2017-11-14T10:00:27.390Z,15.38
2017-11-14T10:02:54.951Z,15.00
2017-11-14T10:05:22.594Z,14.95
2017-11-14T10:07:50.354Z,14.20
2017-11-14T10:10:17.868Z,12.73
2017-11-14T10:12:45.404Z,11.45
2017-11-14T10:15:12.959Z,12.13
2017-11-14T10:17:40.488Z,12.35
2017-11-14T10:20:08.015Z,10.70
2017-11-14T10:22:35.630Z,11.20
2017-11-14T10:25:03.156Z,10.55
2017-11-14T10:27:30.718Z,10.45
2017-11-14T10:29:58.406Z,11.73
2017-11-14T10:32:25.935Z,12.23
2017-11-14T10:34:53.456Z,10.20
2017-11-14T10:37:21.163Z,11.95
2017-11-14T10:39:49.376Z,11.90
2017-11-14T10:42:16.900Z,9.65
2017-11-14T10:44:44.662Z,10.27
2017-11-14T10:47:12.176Z,9.32
2017-11-14T10:49:39.707Z,14.23
2017-11-14T10:52:07.411Z,10.30
2017-11-14T10:54:34.927Z,9.07
2017-11-14T10:57:02.478Z,9.13
2017-11-14T10:59:30.195Z,10.13
2017-11-14T11:01:57.710Z,8.17
2017-11-14T11:04:25.296Z,9.90
2017-11-14T11:06:52.847Z,9.93
2017-11-14T11:09:20.375Z,9.07
2017-11-14T11:11:47.939Z,9.70
2017-11-14T11:14:15.487Z,9.67
2017-11-14T11:16:43.004Z,9.90
2017-11-14T11:19:10.524Z,8.80
2017-11-14T11:21:38.455Z,9.93
2017-11-14T11:24:06.039Z,9.60
2017-11-14T11:26:33.688Z,10.57
2017-11-14T11:29:01.462Z,9.20
2017-11-14T11:31:29.021Z,9.23
2017-11-14T11:33:56.582Z,12.07
2017-11-14T11:36:24.143Z,8.80
2017-11-14T11:38:51.699Z,9.03
2017-11-14T11:41:19.258Z,9.50
2017-11-14T11:43:47.123Z,10.70
2017-11-14T11:46:14.651Z,12.80
2017-11-14T11:48:42.172Z,12.70
2017-11-14T11:51:09.905Z,10.43
2017-11-14T11:53:37.464Z,12.57
2017-11-14T11:56:05.035Z,11.20
2017-11-14T11:58:32.784Z,9.67
2017-11-14T12:01:00.345Z,11.90
2017-11-14T12:03:27.918Z,10.37
2017-11-14T12:05:55.567Z,10.33
2017-11-14T12:08:23.127Z,9.83
2017-11-14T12:10:50.683Z,10.77
2017-11-14T12:13:18.445Z,10.20
2017-11-14T12:15:46.006Z,10.30
2017-11-14T12:18:13.523Z,11.27
2017-11-14T12:20:41.461Z,9.90
2017-11-14T12:23:08.980Z,11.97
2017-11-14T12:25:36.549Z,12.07
2017-11-14T12:28:04.320Z,12.13
2017-11-14T12:30:31.863Z,10.35
2017-11-14T12:32:59.432Z,11.23
2017-11-14T12:35:27.296Z,10.90
2017-11-14T12:37:54.857Z,11.80
2017-11-14T12:40:22.375Z,12.95
2017-11-14T12:42:50.179Z,11.93
2017-11-14T12:45:17.739Z,12.50
2017-11-14T12:47:45.308Z,12.75
2017-11-14T12:50:12.864Z,13.30
2017-11-14T12:52:40.415Z,12.27
2017-11-14T12:55:07.975Z,12.45
2017-11-14T12:57:35.738Z,12.63
2017-11-14T13:00:03.297Z,13.85
2017-11-14T13:02:30.855Z,12.90
2017-11-14T13:04:58.620Z,12.80
2017-11-14T13:07:26.140Z,14.20
2017-11-14T13:09:53.658Z,12.90
2017-11-14T13:12:22.014Z,12.18
2017-11-14T13:14:49.575Z,11.45
2017-11-14T13:17:17.105Z,11.23
2017-11-14T13:19:44.921Z,10.05
2017-11-14T13:22:12.455Z,10.90
2017-11-14T13:24:40.013Z,12.45
2017-11-14T13:27:07.784Z,10.60
2017-11-14T13:29:35.338Z,10.20
2017-11-14T13:32:03.003Z,11.48
2017-11-14T13:34:31.323Z,11.70
2017-11-14T13:36:58.849Z,10.38
2017-11-14T13:39:26.396Z,11.20
2017-11-14T13:41:54.450Z,10.95
2017-11-14T13:44:21.974Z,11.02
2017-11-14T13:46:49.499Z,11.63
2017-11-14T13:49:17.061Z,12.05
2017-11-14T13:51:44.578Z,11.77
2017-11-14T13:54:12.114Z,11.20
2017-11-14T13:56:39.716Z,11.63
2017-11-14T13:59:07.254Z,10.57
2017-11-14T14:01:34.785Z,11.70
2017-11-14T14:04:02.473Z,11.20
2017-11-14T14:06:30.362Z,11.10
2017-11-14T14:08:57.884Z,11.60
2017-11-14T14:11:25.479Z,13.15
2017-11-14T14:13:53.040Z,12.50
2017-11-14T14:16:21.427Z,10.23
2017-11-14T14:18:48.981Z,11.98
2017-11-14T14:21:16.553Z,11.23
2017-11-14T14:23:44.076Z,12.25
2017-11-14T14:26:11.857Z,11.38
2017-11-14T14:28:39.723Z,11.73
2017-11-14T14:31:07.283Z,10.95
2017-11-14T14:33:34.844Z,12.05
2017-11-14T14:36:02.503Z,14.23
2017-11-14T14:41:21.277Z,11.07
2017-11-14T14:43:48.834Z,11.15
2017-11-14T14:46:16.394Z,12.68
2017-11-14T14:48:43.953Z,11.48
2017-11-14T14:51:11.527Z,12.25
2017-11-14T14:53:39.086Z,11.40
2017-11-14T14:56:06.942Z,11.18
2017-11-14T14:58:34.497Z,12.50
2017-11-14T15:01:02.064Z,10.80
2017-11-14T15:03:29.717Z,10.27
2017-11-14T15:05:57.232Z,11.00
2017-11-14T15:08:24.755Z,11.07
2017-11-14T15:10:52.503Z,9.80
2017-11-14T15:13:20.058Z,10.05
2017-11-14T15:15:47.614Z,10.95
2017-11-14T15:18:15.583Z,11.38
2017-11-14T15:20:43.143Z,11.30
2017-11-14T15:23:10.671Z,11.70
2017-11-14T15:25:39.132Z,11.80
2017-11-14T15:28:06.707Z,10.45
2017-11-14T15:30:34.316Z,11.43
2017-11-14T15:33:02.268Z,12.37
2017-11-14T15:35:29.807Z,11.55
2017-11-14T15:37:57.591Z,11.48
2017-11-14T15:40:25.268Z,11.27
2017-11-14T15:42:52.811Z,11.80
2017-11-14T15:45:20.375Z,12.23
2017-11-14T15:47:48.311Z,12.68
2017-11-14T15:50:15.839Z,14.98
2017-11-14T15:52:43.359Z,14.70
2017-11-14T15:55:12.042Z,15.50
2017-11-14T15:57:39.714Z,18.23
2017-11-14T16:00:07.307Z,16.17
2017-11-14T16:02:34.957Z,11.65
2017-11-14T16:05:02.506Z,11.73
2017-11-14T16:07:30.236Z,12.75
2017-11-14T16:09:58.117Z,11.18
2017-11-14T16:12:25.654Z,12.70
2017-11-14T16:14:53.230Z,12.55
2017-11-14T16:17:20.795Z,13.10
2017-11-14T16:19:48.556Z,14.27
2017-11-14T16:22:16.319Z,13.73
2017-11-14T16:24:44.081Z,13.43
2017-11-14T16:27:11.663Z,13.80
2017-11-14T16:29:39.212Z,13.50
2017-11-14T16:32:07.820Z,13.82
2017-11-14T16:34:35.655Z,14.00
2017-11-14T16:37:03.436Z,14.50
2017-11-14T16:39:31.586Z,14.32
2017-11-14T16:41:59.370Z,14.63
2017-11-14T16:44:27.108Z,13.73
2017-11-14T16:46:54.998Z,15.40
2017-11-14T16:49:22.762Z,15.52
2017-11-14T16:51:50.507Z,15.48
2017-11-14T16:54:18.993Z,15.82
2017-11-14T16:56:46.739Z,14.57
2017-11-14T16:59:14.260Z,14.95
2017-11-14T17:01:42.074Z,15.25
2017-11-14T17:04:09.692Z,13.30
2017-11-14T17:06:37.470Z,13.98
2017-11-14T17:09:05.674Z,15.05
2017-11-14T17:11:33.436Z,14.77
2017-11-14T17:14:01.303Z,13.32
2017-11-14T17:16:29.272Z,13.90
2017-11-14T17:18:57.049Z,15.85
2017-11-14T17:21:24.700Z,16.05
2017-11-14T17:23:52.871Z,16.20
2017-11-14T17:26:21.604Z,16.27
2017-11-14T17:28:49.338Z,14.60
2017-11-14T17:31:17.315Z,15.02
2017-11-14T17:33:45.333Z,15.20
2017-11-14T17:36:13.228Z,16.62
2017-11-14T17:38:53.297Z,16.55
2017-11-14T17:41:21.963Z,18.20
2017-11-14T17:43:49.831Z,17.37
2017-11-14T17:46:17.584Z,17.10
2017-11-14T17:48:45.502Z,16.40
2017-11-14T17:51:13.124Z,17.33
2017-11-14T17:53:40.988Z,16.35
2017-11-14T17:56:10.807Z,15.90
2017-11-14T17:58:39.076Z,15.45
2017-11-14T18:01:07.559Z,15.80
2017-11-14T18:03:35.543Z,17.62
2017-11-14T18:06:03.369Z,14.73
2017-11-14T18:08:31.176Z,16.83
2017-11-14T18:10:59.022Z,18.58
2017-11-14T18:13:26.972Z,18.52
2017-11-14T18:15:55.179Z,19.75
2017-11-14T18:18:23.440Z,17.85
2017-11-14T18:20:51.305Z,20.15
2017-11-14T18:23:19.377Z,17.45
2017-11-14T18:25:47.154Z,16.45
2017-11-14T18:28:14.802Z,18.08
2017-11-14T18:30:42.772Z,17.10
2017-11-14T18:33:10.638Z,19.02
2017-11-14T18:35:38.590Z,20.23
2017-11-14T18:38:06.574Z,20.62
2017-11-14T18:40:35.327Z,17.37
2017-11-14T18:43:03.795Z,17.75
2017-11-14T18:45:32.868Z,21.58
2017-11-14T18:48:00.916Z,21.85
2017-11-14T18:50:30.757Z,17.77
2017-11-14T18:52:58.690Z,21.10
2017-11-14T18:55:26.256Z,18.55
2017-11-14T18:57:53.811Z,19.87
2017-11-14T19:00:21.680Z,16.23
2017-11-14T19:02:49.281Z,18.60
2017-11-14T19:05:17.216Z,17.83
2017-11-14T19:07:45.442Z,20.58
2017-11-14T19:10:13.137Z,19.23
2017-11-14T19:12:40.797Z,19.40
2017-11-14T19:15:08.769Z,18.87
2017-11-14T19:17:36.530Z,19.83
2017-11-14T19:20:04.402Z,18.30
2017-11-14T19:22:32.358Z,17.37
2017-11-14T19:25:00.049Z,19.17
2017-11-14T19:27:27.840Z,17.05
2017-11-14T19:29:56.038Z,16.42
2017-11-14T19:32:23.830Z,18.62
2017-11-14T19:34:51.623Z,18.62
2017-11-14T19:37:19.777Z,19.33
2017-11-14T19:39:47.635Z,19.02
2017-11-14T19:42:15.568Z,21.25
2017-11-14T19:44:43.368Z,19.17
2017-11-14T19:47:11.069Z,20.60
2017-11-14T19:49:40.286Z,21.48
2017-11-14T19:52:08.309Z,20.20
2017-11-14T19:54:36.051Z,19.00
2017-11-14T19:57:03.735Z,22.33
2017-11-14T19:59:31.897Z,21.40
2017-11-14T20:01:59.763Z,21.90
2017-11-14T20:04:26.808Z,19.75
2017-11-14T20:06:55.700Z,21.73
2017-11-14T20:09:23.793Z,22.67
2017-11-14T20:11:51.417Z,19.40
2017-11-14T20:14:20.078Z,22.02
2017-11-14T20:16:47.964Z,24.02
2017-11-14T20:19:15.977Z,20.80
2017-11-14T20:21:45.675Z,22.45
2017-11-14T20:24:13.442Z,21.73
2017-11-14T20:26:41.514Z,25.92
2017-11-14T20:29:10.207Z,25.15
2017-11-14T20:31:38.168Z,22.37
2017-11-14T20:34:07.200Z,23.30
2017-11-14T20:36:35.300Z,21.08
2017-11-14T20:39:03.287Z,23.60
2017-11-14T20:41:30.950Z,19.05
2017-11-14T20:43:58.939Z,19.58
2017-11-14T20:46:27.741Z,22.20
2017-11-14T20:48:55.693Z,20.88
2017-11-14T20:51:23.848Z,18.75
2017-11-14T20:53:51.715Z,22.17
2017-11-14T20:56:19.459Z,23.35
2017-11-14T20:58:47.344Z,23.27
2017-11-14T21:01:15.213Z,22.92
2017-11-14T21:03:42.872Z,19.85
2017-11-14T21:06:11.780Z,19.75
2017-11-14T21:08:39.643Z,21.83
2017-11-14T21:11:07.888Z,21.05
2017-11-14T21:13:36.898Z,19.75
2017-11-14T21:16:04.660Z,22.77
2017-11-14T21:18:32.527Z,22.37
2017-11-14T21:21:00.701Z,22.17
2017-11-14T21:23:28.672Z,21.15
2017-11-14T21:25:56.555Z,24.02
2017-11-14T21:28:24.709Z,20.35
2017-11-14T21:30:52.298Z,19.23
2017-11-14T21:33:19.864Z,24.63
2017-11-14T21:35:47.615Z,24.27
2017-11-14T21:38:15.155Z,20.73
2017-11-14T21:40:42.687Z,22.70
2017-11-14T21:43:10.269Z,22.75
2017-11-14T21:45:38.442Z,22.10
2017-11-14T21:48:06.002Z,22.65
2017-11-14T21:50:34.072Z,17.45
2017-11-14T21:53:01.667Z,22.05
2017-11-14T21:55:29.219Z,22.58
2017-11-14T21:57:58.022Z,24.50
2017-11-14T22:00:25.641Z,24.02
2017-11-14T22:02:53.199Z,21.70
2017-11-14T22:05:20.947Z,24.37
2017-11-14T22:07:48.457Z,23.50
2017-11-14T22:10:15.978Z,23.65
2017-11-14T22:12:43.744Z,23.25
2017-11-14T22:15:13.438Z,25.20
2017-11-14T22:17:41.127Z,21.27
2017-11-14T22:20:08.878Z,23.87
2017-11-14T22:22:36.437Z,24.95
2017-11-14T22:25:03.952Z,26.05
2017-11-14T22:27:31.874Z,27.27
2017-11-14T22:29:59.408Z,24.23
2017-11-14T22:32:26.923Z,25.12
2017-11-14T22:34:54.499Z,23.42
2017-11-14T22:37:22.010Z,22.37
2017-11-14T22:39:49.559Z,23.98
2017-11-14T22:42:17.134Z,21.65
2017-11-14T22:44:44.674Z,25.80
2017-11-14T22:47:12.233Z,25.35
2017-11-14T22:49:39.998Z,22.83
2017-11-14T22:52:07.555Z,26.65
2017-11-14T22:54:35.073Z,24.00
2017-11-14T22:57:02.645Z,22.60
2017-11-14T22:59:30.159Z,22.35
2017-11-14T23:01:58.611Z,21.48
2017-11-14T23:04:26.195Z,23.10
2017-11-14T23:06:53.754Z,20.52
2017-11-14T23:09:21.289Z,23.70
2017-11-14T23:11:49.052Z,25.00
2017-11-14T23:14:16.562Z,21.00
2017-11-14T23:16:44.079Z,22.60
2017-11-14T23:19:11.654Z,22.55
2017-11-14T23:21:39.172Z,25.08
2017-11-14T23:24:06.745Z,23.30
2017-11-14T23:26:34.518Z,22.83
2017-11-14T23:29:02.171Z,23.50
2017-11-14T23:31:29.693Z,24.00
2017-11-14T23:33:57.599Z,21.00
2017-11-14T23:36:25.226Z,26.17
2017-11-14T23:38:52.737Z,22.48
2017-11-14T23:41:20.580Z,21.87
2017-11-14T23:43:48.095Z,24.02
2017-11-14T23:46:15.611Z,23.00
2017-11-14T23:48:43.176Z,22.65
2017-11-14T23:51:10.718Z,25.12
2017-11-14T23:53:38.276Z,23.65
2017-11-14T23:56:05.832Z,24.90
2017-11-14T23:58:33.394Z,23.38
